Time;durP1;ratioP1;P1;durP2;ratioP2;P2;SDS_P1;SDS_P2;PMS_P1;PMS_P2;Temp;Humidity;BMP_temperature;BMP_pressure;BME280_temperature;BME280_humidity;BME280_pressure;Samples;Min_cycle;Max_cycle;Signal;HPM_P1;HPM_P2
2023/01/05 00:01:15;;;;;;;30.67;2.53;;;7.70;74.50;;;;;;4012224;29;20048;-84
2023/01/05 00:03:43;;;;;;;22.40;2.55;;;7.70;74.50;;;;;;4209109;23;20467;-85
2023/01/05 00:06:04;;;;;;;28.92;3.35;;;7.60;74.50;;;;;;4091206;28;20023;-85
2023/01/05 00:08:27;;;;;;;25.70;3.40;;;7.80;74.70;;;;;;4096136;28;20105;-86
2023/01/05 00:22:50;;;;;;;17.38;2.08;;;7.70;74.40;;;;;;4077348;29;20115;-84
2023/01/05 00:24:44;;;;;;;15.50;2.65;;;7.70;75.10;;;;;;4071539;29;20054;-86
2023/01/05 00:26:45;;;;;;;18.83;2.42;;;7.60;73.90;;;;;;4078104;29;20528;-86
2023/01/05 00:28:45;;;;;;;23.73;2.95;;;7.70;73.80;;;;;;4070341;29;20214;-84
2023/01/05 00:30:46;;;;;;;19.40;2.33;;;7.70;73.80;;;;;;4073004;29;20146;-86
2023/01/05 00:32:48;;;;;;;17.52;1.80;;;7.80;73.90;;;;;;4091903;28;20497;-86
2023/01/05 00:34:49;;;;;;;21.13;2.25;;;7.60;73.40;;;;;;4079655;29;20063;-85
2023/01/05 00:36:50;;;;;;;23.08;2.83;;;7.60;73.40;;;;;;4078641;29;20695;-84
2023/01/05 00:38:50;;;;;;;22.05;2.22;;;7.70;73.00;;;;;;4109981;28;20039;-83
2023/01/05 00:40:54;;;;;;;15.63;2.00;;;7.70;73.10;;;;;;4062092;29;20024;-86
2023/01/05 00:42:55;;;;;;;21.05;2.60;;;7.70;73.30;;;;;;4075940;29;20038;-85
2023/01/05 00:44:56;;;;;;;21.75;3.03;;;7.60;73.60;;;;;;4055003;29;20039;-86
2023/01/05 00:46:57;;;;;;;9.52;1.85;;;7.60;73.70;;;;;;4078770;29;20055;-85
2023/01/05 00:49:18;;;;;;;14.52;2.17;;;7.70;73.80;;;;;;4077519;28;20050;-85
2023/01/05 00:51:28;;;;;;;16.52;2.15;;;7.60;73.70;;;;;;4091860;28;20412;-86
2023/01/05 00:53:29;;;;;;;15.65;2.30;;;7.70;73.90;;;;;;4073299;29;20300;-85
2023/01/05 00:55:30;;;;;;;16.08;2.20;;;7.70;73.60;;;;;;4077718;29;20028;-85
2023/01/05 00:57:33;;;;;;;20.05;2.42;;;7.60;73.60;;;;;;4077070;29;20036;-85
2023/01/05 00:59:35;;;;;;;16.48;2.03;;;7.60;73.50;;;;;;4075973;28;20105;-85
2023/01/05 01:01:56;;;;;;;20.83;2.72;;;7.60;73.40;;;;;;4077933;29;20028;-85
2023/01/05 01:04:01;;;;;;;26.38;2.45;;;7.80;73.40;;;;;;4074519;29;20062;-85
2023/01/05 01:06:22;;;;;;;14.80;2.13;;;7.70;73.20;;;;;;4087806;28;20067;-86
2023/01/05 01:08:43;;;;;;;18.85;2.03;;;7.60;72.70;;;;;;4080069;29;20123;-84
2023/01/05 01:10:45;;;;;;;16.88;2.42;;;7.60;72.50;;;;;;4080028;29;20019;-85
2023/01/05 01:13:06;;;;;;;26.95;2.83;;;7.60;72.30;;;;;;4082169;28;20122;-84
2023/01/05 01:15:26;;;;;;;19.70;2.22;;;7.60;72.10;;;;;;4095086;28;20094;-85
2023/01/05 01:17:50;;;;;;;18.15;2.58;;;7.60;72.00;;;;;;4078355;29;20106;-86
2023/01/05 01:20:11;;;;;;;12.23;2.15;;;7.70;71.90;;;;;;4101997;28;20031;-85
2023/01/05 01:22:31;;;;;;;20.35;2.60;;;7.60;71.70;;;;;;4104565;28;20082;-86
2023/01/05 01:24:52;;;;;;;21.77;2.10;;;7.70;72.00;;;;;;4105339;28;20098;-86
2023/01/05 01:27:13;;;;;;;24.27;2.55;;;7.70;72.80;;;;;;4074029;28;20115;-86
2023/01/05 01:29:33;;;;;;;19.55;2.25;;;7.70;72.30;;;;;;4095440;28;20035;-88
2023/01/05 01:31:54;;;;;;;23.33;3.30;;;7.80;72.50;;;;;;4079302;29;20032;-85
2023/01/05 01:33:56;;;;;;;28.23;3.95;;;7.80;72.60;;;;;;4076558;29;20598;-85
2023/01/05 01:36:17;;;;;;;25.50;2.55;;;7.80;72.80;;;;;;4076782;29;20044;-86
2023/01/05 01:38:38;;;;;;;22.23;3.38;;;7.80;72.90;;;;;;4101274;28;20101;-85
2023/01/05 01:40:58;;;;;;;23.70;2.83;;;7.80;72.90;;;;;;4089037;28;20054;-86
2023/01/05 01:43:41;;;;;;;24.73;2.97;;;7.70;72.80;;;;;;4080594;29;20035;-86
2023/01/05 01:46:02;;;;;;;19.55;2.30;;;7.80;72.90;;;;;;4092156;28;20019;-85
2023/01/05 01:48:22;;;;;;;19.45;2.55;;;7.70;73.40;;;;;;4079209;29;20038;-87
2023/01/05 01:50:53;;;;;;;19.77;2.42;;;7.70;72.60;;;;;;4077907;28;20040;-86
2023/01/05 01:53:21;;;;;;;18.80;2.30;;;7.70;72.60;;;;;;4088299;28;20067;-87
2023/01/05 01:55:43;;;;;;;21.30;2.13;;;7.70;72.60;;;;;;4077886;29;20110;-83
2023/01/05 01:57:46;;;;;;;13.63;1.88;;;7.70;72.50;;;;;;4108772;28;20041;-85
2023/01/05 01:59:47;;;;;;;13.13;1.75;;;7.70;72.50;;;;;;4110272;28;20023;-85
2023/01/05 02:01:50;;;;;;;11.73;1.73;;;7.80;72.60;;;;;;4095917;28;20023;-83
2023/01/05 02:03:50;;;;;;;17.25;2.03;;;7.70;73.20;;;;;;4091079;28;20119;-82
2023/01/05 02:05:53;;;;;;;15.38;2.00;;;7.70;72.70;;;;;;4074248;29;20040;-87
2023/01/05 02:07:54;;;;;;;16.40;2.27;;;7.60;72.60;;;;;;4120444;28;20031;-86
2023/01/05 02:09:54;;;;;;;16.83;2.28;;;7.60;72.60;;;;;;4078850;29;20354;-84
2023/01/05 02:12:26;;;;;;;17.52;2.17;;;7.70;72.70;;;;;;4082088;29;20044;-85
2023/01/05 02:14:51;;;;;;;11.75;1.92;;;7.70;72.80;;;;;;4109678;28;20390;-85
2023/01/05 02:16:58;;;;;;;18.20;1.70;;;7.70;72.90;;;;;;4107962;28;20106;-84
2023/01/05 02:19:23;;;;;;;15.00;2.03;;;7.80;73.00;;;;;;4088302;28;20031;-85
2023/01/05 02:22:02;;;;;;;14.52;2.05;;;7.70;72.80;;;;;;4089809;28;20027;-87
2023/01/05 02:24:31;;;;;;;16.17;1.73;;;7.70;72.60;;;;;;4071917;29;20028;-86
2023/01/05 02:26:56;;;;;;;20.70;2.20;;;7.70;72.40;;;;;;4077374;29;20152;-85
2023/01/05 02:29:29;;;;;;;15.57;1.80;;;7.70;72.30;;;;;;4095131;28;20058;-85
2023/01/05 02:31:39;;;;;;;21.10;2.75;;;7.70;72.10;;;;;;4095509;28;20027;-84
2023/01/05 02:34:08;;;;;;;12.88;2.08;;;7.70;72.10;;;;;;4092017;28;20074;-85
2023/01/05 02:36:18;;;;;;;17.45;2.08;;;7.70;71.90;;;;;;4093496;28;20027;-86
2023/01/05 02:38:52;;;;;;;17.30;2.08;;;7.70;71.90;;;;;;4110271;28;20517;-85
2023/01/05 02:40:58;;;;;;;16.05;2.10;;;7.70;71.80;;;;;;4063819;29;20035;-85
2023/01/05 02:43:20;;;;;;;16.98;2.72;;;7.70;71.90;;;;;;4079787;29;20043;-86
2023/01/05 02:45:40;;;;;;;15.40;2.08;;;7.80;71.70;;;;;;4095044;28;20071;-85
2023/01/05 02:47:43;;;;;;;13.40;2.28;;;7.70;71.60;;;;;;4082282;29;20036;-85
2023/01/05 02:49:44;;;;;;;15.35;1.75;;;7.70;71.30;;;;;;4078065;29;20491;-83
2023/01/05 02:51:50;;;;;;;11.98;1.60;;;7.70;71.30;;;;;;4098186;28;20023;-85
2023/01/05 02:54:04;;;;;;;22.58;2.50;;;7.80;71.20;;;;;;4093704;28;20634;-85
2023/01/05 02:56:11;;;;;;;22.90;2.75;;;7.70;71.10;;;;;;4082195;29;20115;-84
2023/01/05 02:58:20;;;;;;;16.63;2.47;;;7.70;71.00;;;;;;4079619;29;20023;-85
2023/01/05 03:01:01;;;;;;;13.90;2.03;;;7.80;71.00;;;;;;4090802;28;20024;-85
2023/01/05 03:03:12;;;;;;;16.50;2.03;;;7.80;71.00;;;;;;4112131;28;20011;-84
2023/01/05 03:05:31;;;;;;;18.25;1.85;;;7.80;70.90;;;;;;4083369;29;20062;-85
2023/01/05 03:08:05;;;;;;;20.75;2.47;;;7.80;71.00;;;;;;4092845;28;20055;-85
2023/01/05 03:15:38;;;;;;;19.98;2.40;;;7.90;71.40;;;;;;4081196;28;20501;-86
2023/01/05 03:18:08;;;;;;;13.88;2.20;;;7.80;71.60;;;;;;4113661;28;20855;-85
2023/01/05 03:20:28;;;;;;;26.30;3.45;;;7.80;71.70;;;;;;4082162;29;20036;-86
2023/01/05 03:36:28;;;;;;;26.33;3.13;;;7.80;72.70;;;;;;4082926;29;20036;-86
2023/01/05 03:38:51;;;;;;;20.95;2.55;;;7.80;72.90;;;;;;4078234;29;20119;-86
2023/01/05 03:41:14;;;;;;;32.20;4.20;;;7.80;73.10;;;;;;4077937;29;20043;-87
2023/01/05 03:43:36;;;;;;;18.65;2.50;;;7.90;73.30;;;;;;4080574;29;20290;-86
2023/01/05 03:45:56;;;;;;;17.95;2.88;;;7.90;73.40;;;;;;4081230;29;20032;-86
2023/01/05 03:48:17;;;;;;;19.65;2.97;;;7.80;73.50;;;;;;4078687;29;20038;-86
2023/01/05 03:50:18;;;;;;;28.52;3.50;;;7.90;73.60;;;;;;4110279;28;20027;-86
2023/01/05 03:52:19;;;;;;;20.20;3.38;;;7.80;73.60;;;;;;4096467;28;20022;-85
2023/01/05 03:54:19;;;;;;;18.88;2.70;;;7.90;73.80;;;;;;4078649;29;20106;-86
2023/01/05 03:56:20;;;;;;;22.08;3.17;;;7.90;73.70;;;;;;4081717;29;20027;-87
2023/01/05 03:58:21;;;;;;;20.40;2.63;;;7.90;73.80;;;;;;4110907;28;20382;-86
2023/01/05 04:00:22;;;;;;;19.75;2.85;;;7.80;73.60;;;;;;4080226;29;20035;-86
2023/01/05 04:02:22;;;;;;;21.25;2.55;;;7.80;73.50;;;;;;4077686;29;20053;-87
2023/01/05 04:04:23;;;;;;;20.52;2.65;;;7.70;73.40;;;;;;4098089;28;20122;-88
2023/01/05 04:06:24;;;;;;;21.60;2.50;;;7.90;73.60;;;;;;4078084;29;20057;-85
2023/01/05 04:08:24;;;;;;;14.20;2.30;;;7.90;73.50;;;;;;4059992;29;20024;-87
2023/01/05 04:10:25;;;;;;;22.48;2.55;;;7.90;73.50;;;;;;4092566;28;20126;-85
2023/01/05 04:12:27;;;;;;;22.63;3.00;;;7.90;73.50;;;;;;4079462;29;20119;-87
2023/01/05 04:14:28;;;;;;;24.75;2.90;;;7.90;73.70;;;;;;4101014;28;20019;-84
2023/01/05 04:16:29;;;;;;;20.70;3.05;;;7.90;74.40;;;;;;4077850;28;20039;-85
2023/01/05 04:18:29;;;;;;;20.33;2.83;;;7.80;73.40;;;;;;4082651;29;20027;-86
2023/01/05 04:20:30;;;;;;;17.85;2.50;;;7.80;73.30;;;;;;4078817;29;20503;-86
2023/01/05 04:22:31;;;;;;;16.73;2.08;;;7.70;73.40;;;;;;4114344;28;20038;-87
2023/01/05 04:24:32;;;;;;;30.95;3.22;;;7.90;74.00;;;;;;4081263;29;20043;-86
2023/01/05 04:26:32;;;;;;;18.90;2.50;;;7.80;74.40;;;;;;4114017;28;20027;-85
2023/01/05 04:28:33;;;;;;;20.42;2.67;;;7.80;74.40;;;;;;4082281;28;20035;-86
2023/01/05 04:30:34;;;;;;;15.68;2.85;;;7.90;74.50;;;;;;4077552;29;20036;-83
2023/01/05 04:32:34;;;;;;;25.63;3.28;;;7.90;74.50;;;;;;4079116;29;20062;-87
2023/01/05 04:34:35;;;;;;;22.90;3.03;;;7.80;74.50;;;;;;4081446;29;20032;-87
2023/01/05 04:36:36;;;;;;;27.83;3.67;;;7.80;74.70;;;;;;4081246;29;20056;-84
2023/01/05 04:38:36;;;;;;;24.83;3.85;;;7.70;74.90;;;;;;4097695;28;20035;-85
2023/01/05 04:40:37;;;;;;;22.88;2.67;;;7.70;74.80;;;;;;4094741;28;20029;-84
2023/01/05 04:42:38;;;;;;;27.23;2.90;;;7.80;75.20;;;;;;4048550;29;20040;-84
2023/01/05 04:44:39;;;;;;;33.97;3.30;;;7.70;75.00;;;;;;4113865;28;20082;-86
2023/01/05 04:46:40;;;;;;;26.73;3.78;;;7.80;75.30;;;;;;4061465;29;20024;-85
2023/01/05 04:48:40;;;;;;;22.60;3.15;;;7.80;75.60;;;;;;4079817;29;20735;-86
2023/01/05 04:50:41;;;;;;;23.17;2.85;;;7.80;75.50;;;;;;4079725;29;20031;-85
2023/01/05 04:52:42;;;;;;;18.40;3.10;;;7.70;75.20;;;;;;4092239;28;20035;-83
2023/01/05 04:54:42;;;;;;;22.05;2.97;;;7.80;75.30;;;;;;4081315;29;20039;-85
2023/01/05 04:56:43;;;;;;;23.63;2.75;;;7.70;75.20;;;;;;4110333;28;20655;-86
2023/01/05 04:58:47;;;;;;;17.00;2.72;;;7.70;76.10;;;;;;4064209;29;20115;-86
2023/01/05 05:00:49;;;;;;;22.67;2.90;;;7.80;75.20;;;;;;4074946;29;20027;-85
2023/01/05 05:02:53;;;;;;;26.45;3.15;;;7.80;75.30;;;;;;4076821;29;20086;-87
2023/01/05 05:04:53;;;;;;;28.77;3.03;;;7.70;75.20;;;;;;4107240;28;20157;-85
2023/01/05 05:06:54;;;;;;;24.73;3.55;;;7.80;75.20;;;;;;4088056;28;20023;-85
2023/01/05 05:08:55;;;;;;;21.55;3.05;;;7.70;75.00;;;;;;4080526;29;20058;-86
2023/01/05 05:10:56;;;;;;;21.65;2.67;;;7.60;75.00;;;;;;4085226;29;20070;-88
2023/01/05 05:12:56;;;;;;;20.60;2.17;;;7.70;75.00;;;;;;4081654;29;20585;-87
2023/01/05 05:14:57;;;;;;;25.02;3.53;;;7.70;74.80;;;;;;4079271;29;20036;-87
2023/01/05 05:16:58;;;;;;;37.22;3.80;;;7.70;74.80;;;;;;4078591;29;20041;-85
2023/01/05 05:18:58;;;;;;;29.05;3.08;;;7.60;74.80;;;;;;4063688;29;20031;-89
2023/01/05 05:20:59;;;;;;;25.85;3.47;;;7.60;74.70;;;;;;4080095;29;20032;-83
2023/01/05 05:23:00;;;;;;;17.52;2.65;;;7.60;74.70;;;;;;4085659;29;20075;-86
2023/01/05 05:25:01;;;;;;;22.92;2.63;;;7.60;74.40;;;;;;4107097;28;20035;-87
2023/01/05 05:27:01;;;;;;;17.95;3.00;;;7.60;74.50;;;;;;4084848;28;20028;-84
2023/01/05 05:29:02;;;;;;;22.55;2.80;;;7.70;74.40;;;;;;4087020;29;20051;-87
2023/01/05 05:31:06;;;;;;;26.52;2.97;;;7.70;74.40;;;;;;4084848;29;20035;-87
2023/01/05 05:33:07;;;;;;;26.35;2.85;;;7.60;74.30;;;;;;4098030;28;20078;-86
2023/01/05 05:35:08;;;;;;;20.45;3.10;;;7.70;74.40;;;;;;4100148;28;20029;-87
2023/01/05 05:37:11;;;;;;;20.17;3.05;;;7.60;74.30;;;;;;4112013;28;20030;-85
2023/01/05 05:39:14;;;;;;;27.67;2.95;;;7.60;74.30;;;;;;4080153;29;20083;-86
2023/01/05 05:41:15;;;;;;;17.95;2.70;;;7.60;74.10;;;;;;4081514;29;20055;-86
2023/01/05 05:43:16;;;;;;;22.75;2.85;;;7.60;74.00;;;;;;4083453;29;20054;-87
2023/01/05 05:45:17;;;;;;;22.13;3.25;;;7.70;73.80;;;;;;4066634;29;20032;-86
2023/01/05 05:47:17;;;;;;;23.17;2.67;;;7.60;73.30;;;;;;4068660;29;20567;-84
2023/01/05 05:49:18;;;;;;;11.77;1.95;;;7.50;72.30;;;;;;4083903;29;20042;-86
2023/01/05 05:51:19;;;;;;;14.60;2.20;;;7.50;71.40;;;;;;4080281;29;20034;-86
2023/01/05 05:53:19;;;;;;;16.15;2.00;;;7.50;70.80;;;;;;4080443;29;20367;-85
2023/01/05 05:55:20;;;;;;;15.23;2.38;;;7.40;70.50;;;;;;4083972;29;20047;-85
2023/01/05 05:57:21;;;;;;;17.48;2.13;;;7.30;70.30;;;;;;4109496;28;20035;-83
2023/01/05 05:59:21;;;;;;;15.82;2.00;;;7.40;70.50;;;;;;4085614;28;20063;-86
2023/01/05 06:01:22;;;;;;;19.02;2.03;;;7.30;70.40;;;;;;4075466;29;20621;-86
2023/01/05 06:03:23;;;;;;;14.32;1.75;;;7.30;70.70;;;;;;4076365;29;20035;-85
2023/01/05 06:05:23;;;;;;;20.00;1.70;;;7.20;70.80;;;;;;4076563;29;20043;-85
2023/01/05 06:07:24;;;;;;;11.43;1.63;;;7.20;71.00;;;;;;4085645;29;20084;-85
2023/01/05 06:09:25;;;;;;;18.08;2.45;;;7.10;71.20;;;;;;4093515;28;20039;-85
2023/01/05 06:11:26;;;;;;;18.15;2.42;;;7.10;71.50;;;;;;4074415;29;20050;-85
2023/01/05 06:13:26;;;;;;;12.35;1.92;;;7.10;71.80;;;;;;4080366;29;20028;-86
2023/01/05 06:15:27;;;;;;;14.75;2.00;;;7.00;72.10;;;;;;4079911;29;20036;-85
2023/01/05 06:17:28;;;;;;;15.13;1.60;;;7.00;72.50;;;;;;4108835;28;20081;-86
2023/01/05 06:19:28;;;;;;;15.68;1.83;;;7.00;72.80;;;;;;4109033;28;20031;-85
2023/01/05 06:21:29;;;;;;;18.10;1.50;;;7.00;73.20;;;;;;4092450;28;20032;-87
2023/01/05 06:23:30;;;;;;;16.42;1.88;;;7.00;73.30;;;;;;4079749;29;20035;-86
2023/01/05 06:25:30;;;;;;;9.20;1.25;;;6.80;73.50;;;;;;4079665;29;20046;-87
2023/01/05 06:27:36;;;;;;;8.88;1.20;;;6.80;73.70;;;;;;4081540;29;20525;-86
2023/01/05 06:29:36;;;;;;;11.95;1.48;;;6.80;73.80;;;;;;4078295;29;20023;-84
2023/01/05 06:31:37;;;;;;;13.00;1.63;;;6.80;74.10;;;;;;4080377;29;20031;-86
2023/01/05 06:33:38;;;;;;;12.88;1.27;;;6.70;74.10;;;;;;4102202;28;20031;-85
2023/01/05 06:35:38;;;;;;;7.82;1.27;;;6.70;74.30;;;;;;4084453;29;20031;-86
2023/01/05 06:37:39;;;;;;;9.18;1.17;;;6.70;74.50;;;;;;4086664;29;20035;-86
2023/01/05 06:39:40;;;;;;;7.78;1.13;;;6.60;74.10;;;;;;4097695;28;20043;-86
2023/01/05 06:41:40;;;;;;;5.22;0.65;;;6.50;73.40;;;;;;4088025;28;20034;-87
2023/01/05 06:43:41;;;;;;;1.80;0.40;;;6.40;72.80;;;;;;4085346;29;20123;-87
2023/01/05 06:45:42;;;;;;;1.65;0.35;;;6.40;72.90;;;;;;4093708;28;20085;-88
2023/01/05 06:47:44;;;;;;;4.60;0.47;;;6.30;72.60;;;;;;4084064;29;21381;-84
2023/01/05 06:49:45;;;;;;;0.32;0.20;;;6.20;71.80;;;;;;4084230;29;20087;-87
2023/01/05 06:51:45;;;;;;;0.60;0.28;;;6.10;71.60;;;;;;4095938;28;20172;-86
2023/01/05 06:53:46;;;;;;;0.45;0.13;;;6.10;71.50;;;;;;4077993;29;20035;-85
2023/01/05 06:55:47;;;;;;;1.17;0.22;;;6.00;71.20;;;;;;4066334;29;20131;-86
2023/01/05 06:57:48;;;;;;;4.68;0.50;;;6.00;71.10;;;;;;4098070;28;20052;-87
2023/01/05 06:59:48;;;;;;;1.70;0.47;;;5.90;71.10;;;;;;4069077;29;20028;-85
2023/01/05 07:01:49;;;;;;;2.00;0.55;;;5.70;71.00;;;;;;4086908;29;20127;-85
2023/01/05 07:03:49;;;;;;;2.15;0.57;;;5.70;70.30;;;;;;4085311;29;20106;-86
2023/01/05 07:05:51;;;;;;;1.83;0.40;;;5.50;69.70;;;;;;4079873;29;20042;-85
2023/01/05 07:07:51;;;;;;;4.10;0.52;;;5.40;69.90;;;;;;4100913;28;20035;-86
2023/01/05 07:09:52;;;;;;;5.93;0.90;;;5.30;69.90;;;;;;4095930;28;20094;-86
2023/01/05 07:11:53;;;;;;;2.28;0.50;;;5.10;69.70;;;;;;4082515;29;20050;-85
2023/01/05 07:13:53;;;;;;;2.80;0.70;;;5.10;70.00;;;;;;4082364;29;20031;-86
2023/01/05 07:15:54;;;;;;;6.07;0.60;;;5.10;70.20;;;;;;4082945;29;20032;-86
2023/01/05 07:17:55;;;;;;;3.88;0.70;;;5.00;70.60;;;;;;4080957;29;20498;-85
2023/01/05 07:19:55;;;;;;;3.65;0.77;;;4.90;70.70;;;;;;4082208;29;20086;-87
2023/01/05 07:21:57;;;;;;;4.35;0.77;;;4.70;70.50;;;;;;4114166;28;20026;-86
2023/01/05 07:23:57;;;;;;;4.63;0.80;;;4.70;70.70;;;;;;4112078;28;20038;-87
2023/01/05 07:26:01;;;;;;;3.25;0.75;;;4.60;70.80;;;;;;4068731;29;20058;-86
2023/01/05 07:28:01;;;;;;;;;;;4.60;71.10;;;;;;4089581;29;20043;-85
2023/01/05 07:30:03;;;;;;;5.35;0.95;;;4.50;71.20;;;;;;4063401;29;20240;-87
2023/01/05 07:32:04;;;;;;;4.63;0.80;;;4.40;71.10;;;;;;4074549;29;20036;-85
2023/01/05 07:34:04;;;;;;;5.22;0.93;;;4.40;71.40;;;;;;4080638;29;20102;-86
2023/01/05 07:36:05;;;;;;;8.73;1.08;;;4.40;71.40;;;;;;4076845;29;20039;-85
2023/01/05 07:38:06;;;;;;;2.30;0.68;;;4.30;71.70;;;;;;4079882;29;20034;-86
2023/01/05 07:40:07;;;;;;;7.57;0.85;;;4.20;71.60;;;;;;4078242;29;20023;-85
2023/01/05 07:42:08;;;;;;;2.80;0.63;;;4.20;71.70;;;;;;4096161;28;20098;-85
2023/01/05 07:44:09;;;;;;;4.68;0.55;;;4.20;71.80;;;;;;4083567;29;20128;-85
2023/01/05 07:46:09;;;;;;;13.38;1.20;;;4.10;71.90;;;;;;4083984;29;20027;-85
2023/01/05 07:48:10;;;;;;;3.47;0.77;;;4.10;71.90;;;;;;4109138;28;20027;-86
2023/01/05 07:50:12;;;;;;;2.63;0.50;;;4.10;72.00;;;;;;4079944;29;20095;-86
2023/01/05 07:52:12;;;;;;;2.20;0.60;;;4.00;71.90;;;;;;4077222;29;20035;-85
2023/01/05 07:54:13;;;;;;;7.95;0.90;;;4.00;72.10;;;;;;4111238;28;20027;-86
2023/01/05 07:56:15;;;;;;;7.18;0.98;;;3.90;72.80;;;;;;4068152;29;20483;-86
2023/01/05 07:58:15;;;;;;;6.47;0.90;;;3.90;72.20;;;;;;4080762;29;20106;-87
2023/01/05 08:00:16;;;;;;;7.53;1.05;;;3.90;72.10;;;;;;4090467;28;20027;-87
2023/01/05 08:02:17;;;;;;;10.57;0.65;;;3.80;72.00;;;;;;4079644;29;20027;-86
2023/01/05 08:04:18;;;;;;;8.50;1.35;;;3.80;72.10;;;;;;4110351;28;20058;-85
2023/01/05 08:06:19;;;;;;;6.50;0.90;;;3.80;72.00;;;;;;4095564;28;20027;-85
2023/01/05 08:08:20;;;;;;;3.80;0.93;;;3.70;72.00;;;;;;4111060;28;20033;-85
2023/01/05 08:10:29;;;;;;;4.30;0.60;;;3.70;71.90;;;;;;4067127;29;20032;-86
2023/01/05 08:12:31;;;;;;;9.35;1.67;;;3.80;71.90;;;;;;4098140;28;20121;-85
2023/01/05 08:14:32;;;;;;;6.03;0.70;;;3.70;71.60;;;;;;4077416;29;20051;-85
2023/01/05 08:16:32;;;;;;;8.10;0.90;;;3.80;71.80;;;;;;4080539;29;20501;-85
2023/01/05 08:18:33;;;;;;;7.35;0.73;;;3.70;71.70;;;;;;4083779;29;20024;-87
2023/01/05 08:20:34;;;;;;;6.93;0.70;;;3.70;71.70;;;;;;4091753;28;20034;-85
2023/01/05 08:22:35;;;;;;;4.03;0.70;;;3.70;71.80;;;;;;4060702;29;20734;-87
2023/01/05 08:24:36;;;;;;;7.13;1.20;;;3.70;71.90;;;;;;4081820;29;20023;-86
2023/01/05 08:26:37;;;;;;;5.82;0.82;;;3.60;71.90;;;;;;4079776;29;20039;-85
2023/01/05 08:28:41;;;;;;;4.95;0.82;;;3.70;72.30;;;;;;4110334;28;20117;-85
2023/01/05 08:30:43;;;;;;;8.00;1.08;;;3.70;72.30;;;;;;4092087;28;20494;-88
2023/01/05 08:32:44;;;;;;;8.63;1.45;;;3.70;72.40;;;;;;4108950;28;20564;-86
2023/01/05 08:34:44;;;;;;;3.38;0.65;;;3.80;72.50;;;;;;4079937;29;20020;-84
2023/01/05 08:36:45;;;;;;;6.40;1.02;;;3.70;72.30;;;;;;4109241;28;20106;-86
2023/01/05 08:38:49;;;;;;;8.90;1.10;;;3.60;72.30;;;;;;4092328;28;20154;-84
2023/01/05 08:40:50;;;;;;;9.57;0.95;;;3.70;72.40;;;;;;4079045;29;20442;-87
2023/01/05 08:42:51;;;;;;;11.43;1.00;;;3.60;72.40;;;;;;4078194;29;20114;-88
2023/01/05 08:44:55;;;;;;;5.82;0.65;;;3.70;72.30;;;;;;4063955;29;20084;-86
2023/01/05 08:46:56;;;;;;;8.52;0.90;;;3.70;72.40;;;;;;4084005;29;20094;-86
2023/01/05 08:48:59;;;;;;;2.88;0.70;;;3.60;72.20;;;;;;4083847;29;20106;-86
2023/01/05 08:51:05;;;;;;;13.07;1.23;;;3.60;72.30;;;;;;4082768;29;20035;-85
2023/01/05 08:53:14;;;;;;;6.78;0.77;;;3.60;72.20;;;;;;4062530;29;20300;-84
2023/01/05 08:55:17;;;;;;;11.13;0.90;;;3.50;72.20;;;;;;4080265;29;20032;-86
2023/01/05 08:57:18;;;;;;;7.22;1.08;;;3.70;72.20;;;;;;4086525;29;20035;-85
2023/01/05 08:59:21;;;;;;;6.57;0.88;;;3.60;72.20;;;;;;4083318;29;20035;-86
2023/01/05 09:01:42;;;;;;;4.67;0.80;;;3.60;72.20;;;;;;4093395;28;20059;-87
2023/01/05 09:04:09;;;;;;;7.53;1.02;;;3.70;72.30;;;;;;4090110;28;20035;-86
2023/01/05 09:06:36;;;;;;;6.40;0.93;;;3.70;72.10;;;;;;4084264;28;20031;-87
2023/01/05 09:08:47;;;;;;;5.32;0.85;;;3.60;72.00;;;;;;4114563;28;20050;-86
2023/01/05 09:11:44;;;;;;;6.13;1.10;;;3.70;72.10;;;;;;4097219;28;20118;-85
2023/01/05 09:13:51;;;;;;;8.30;0.80;;;3.70;72.20;;;;;;4047050;29;20041;-85
2023/01/05 09:19:09;;;;;;;7.80;1.08;;;3.70;72.30;;;;;;4032478;29;19922;-85
2023/01/05 09:21:30;;;;;;;7.97;1.05;;;3.80;72.40;;;;;;4017756;29;20073;-85
2023/01/05 09:23:54;;;;;;;9.45;1.17;;;3.60;72.20;;;;;;4013248;29;20049;-85
2023/01/05 09:26:17;;;;;;;5.60;1.00;;;3.70;72.40;;;;;;4031436;29;20041;-87
2023/01/05 09:28:38;;;;;;;5.75;0.82;;;3.80;72.40;;;;;;4037581;29;20092;-86
2023/01/05 09:31:10;;;;;;;5.60;0.90;;;3.90;72.40;;;;;;4032757;29;20131;-86
2023/01/05 09:33:31;;;;;;;13.95;1.48;;;3.80;72.20;;;;;;4016788;29;20030;-89
2023/01/05 09:35:54;;;;;;;10.68;1.27;;;3.80;72.10;;;;;;4015083;29;20037;-86
2023/01/05 09:38:14;;;;;;;8.93;1.98;;;3.80;72.20;;;;;;4026164;29;20114;-85
2023/01/05 09:40:42;;;;;;;9.80;0.93;;;3.80;72.20;;;;;;4013119;29;20086;-86
2023/01/05 09:43:03;;;;;;;5.95;0.70;;;3.90;72.20;;;;;;4027702;29;20033;-83
2023/01/05 09:45:26;;;;;;;6.57;1.17;;;3.90;72.30;;;;;;4032282;29;20097;-84
2023/01/05 09:47:47;;;;;;;8.45;0.82;;;3.90;72.10;;;;;;4030180;29;20120;-86
2023/01/05 09:50:20;;;;;;;9.50;1.30;;;3.90;72.00;;;;;;4030966;29;20029;-85
2023/01/05 09:52:41;;;;;;;12.43;1.55;;;4.00;72.20;;;;;;4040046;29;20071;-85
2023/01/05 09:55:18;;;;;;;12.75;1.13;;;4.00;72.20;;;;;;4040218;29;20053;-86
2023/01/05 09:57:39;;;;;;;5.57;0.95;;;4.00;72.10;;;;;;4082011;28;20107;-87
2023/01/05 10:00:05;;;;;;;8.73;1.30;;;4.00;71.90;;;;;;4079769;28;20051;-85
2023/01/05 10:04:22;;;;;;;11.82;1.55;;;4.00;71.70;;;;;;4143364;23;20129;-87
2023/01/05 10:06:31;;;;;;;14.65;2.00;;;4.00;71.70;;;;;;4092255;28;20023;-84
2023/01/05 10:08:37;;;;;;;9.68;1.65;;;4.00;71.70;;;;;;4109845;28;20095;-84
2023/01/05 10:10:43;;;;;;;6.75;1.10;;;4.10;71.80;;;;;;4108034;28;20041;-83
2023/01/05 10:13:05;;;;;;;8.35;1.33;;;4.10;71.80;;;;;;4106973;28;20035;-86
2023/01/05 10:15:11;;;;;;;17.10;2.20;;;4.10;71.90;;;;;;4112350;28;20085;-84
2023/01/05 10:17:16;;;;;;;9.80;1.20;;;4.10;71.80;;;;;;4115770;28;20035;-84
2023/01/05 10:19:19;;;;;;;12.10;1.55;;;4.10;71.90;;;;;;4092791;28;20047;-85
2023/01/05 10:21:26;;;;;;;11.30;1.60;;;4.20;71.90;;;;;;4091154;28;20031;-85
2023/01/05 10:23:35;;;;;;;10.13;1.83;;;4.20;71.80;;;;;;4106746;28;20031;-84
2023/01/05 10:25:39;;;;;;;10.73;1.65;;;4.20;71.70;;;;;;4127591;28;20038;-84
2023/01/05 10:27:50;;;;;;;7.28;1.25;;;4.20;72.40;;;;;;4109410;28;20034;-85
2023/01/05 10:30:03;;;;;;;7.03;1.23;;;4.20;71.60;;;;;;4107663;28;20023;-87
2023/01/05 10:32:22;;;;;;;8.02;1.55;;;4.20;71.80;;;;;;4097558;28;20198;-88
2023/01/05 10:34:54;;;;;;;6.30;1.35;;;4.20;71.70;;;;;;4079392;29;20051;-87
2023/01/05 10:37:23;;;;;;;17.48;1.70;;;4.20;71.20;;;;;;4110769;28;20035;-85
2023/01/05 10:40:07;;;;;;;8.85;1.27;;;4.20;71.00;;;;;;4115443;28;20615;-85
2023/01/05 10:42:13;;;;;;;9.43;1.27;;;4.20;71.00;;;;;;4075410;29;21081;-85
2023/01/05 10:44:41;;;;;;;14.32;2.00;;;4.20;71.00;;;;;;4056502;29;20077;-85
2023/01/05 10:46:47;;;;;;;5.75;1.63;;;4.20;70.90;;;;;;4068680;29;21055;-85
2023/01/05 10:48:48;;;;;;;8.43;1.50;;;4.20;71.00;;;;;;4069493;29;20039;-85
2023/01/05 10:50:53;;;;;;;9.48;1.10;;;4.20;71.20;;;;;;4077168;29;20047;-85
2023/01/05 10:52:54;;;;;;;7.15;1.20;;;4.40;71.30;;;;;;4062659;29;20274;-85
2023/01/05 10:54:59;;;;;;;3.67;0.80;;;4.30;71.20;;;;;;4073649;29;20433;-87
2023/01/05 10:57:39;;;;;;;7.70;1.30;;;4.30;71.20;;;;;;4076647;29;20170;-89
2023/01/05 11:00:14;;;;;;;15.20;2.47;;;4.30;71.00;;;;;;4072376;29;20151;-85
2023/01/05 11:02:15;;;;;;;15.73;2.00;;;4.30;71.20;;;;;;4030736;29;20044;-85
2023/01/05 11:04:19;;;;;;;10.07;1.35;;;4.30;71.20;;;;;;4016437;29;20106;-87
2023/01/05 11:06:27;;;;;;;9.35;1.40;;;4.30;70.90;;;;;;4010996;29;20065;-85
2023/01/05 11:08:30;;;;;;;5.43;1.13;;;4.40;70.70;;;;;;4031553;29;20481;-86
2023/01/05 11:10:38;;;;;;;8.30;1.40;;;4.30;70.70;;;;;;4012986;29;20033;-85
2023/01/05 11:12:46;;;;;;;8.18;1.10;;;4.30;70.80;;;;;;4031755;29;20033;-85
2023/01/05 11:14:54;;;;;;;10.40;1.25;;;4.40;70.90;;;;;;4028340;29;20189;-84
2023/01/05 11:17:04;;;;;;;3.78;0.82;;;4.40;70.80;;;;;;4055727;29;20215;-87
2023/01/05 11:19:11;;;;;;;9.23;1.40;;;4.30;70.60;;;;;;4075369;29;20100;-85
2023/01/05 11:21:41;;;;;;;12.50;1.63;;;4.40;70.70;;;;;;4059588;29;20200;-84
2023/01/05 11:23:47;;;;;;;8.05;1.23;;;4.40;70.80;;;;;;4059550;29;20028;-85
2023/01/05 11:26:19;;;;;;;9.60;1.45;;;4.50;71.70;;;;;;4044806;29;20036;-85
2023/01/05 11:30:57;;;;;;;11.57;1.45;;;4.40;70.60;;;;;;4186090;28;20654;-85
2023/01/05 11:33:24;;;;;;;15.43;1.83;;;4.40;70.90;;;;;;4254050;22;20048;-86
2023/01/05 11:45:58;;;;;;;7.63;0.98;;;4.50;71.10;;;;;;4101098;28;20041;-87
2023/01/05 11:48:24;;;;;;;10.93;1.20;;;4.60;71.40;;;;;;4104485;28;20065;-85
2023/01/05 11:57:22;;;;;;;9.43;1.17;;;4.50;71.40;;;;;;4182194;28;20525;-86
2023/01/05 11:59:45;;;;;;;8.02;1.00;;;4.50;71.20;;;;;;4179444;28;20047;-84
2023/01/05 12:04:52;;;;;;;7.47;0.98;;;4.60;71.20;;;;;;4182183;23;20063;-84
2023/01/05 12:08:08;;;;;;;9.35;1.40;;;4.60;71.40;;;;;;4166583;28;20741;-84
2023/01/05 12:13:49;;;;;;;7.72;1.02;;;4.60;71.20;;;;;;4114371;28;20065;-85
2023/01/05 12:19:24;;;;;;;10.68;1.10;;;4.70;71.00;;;;;;4121595;28;20077;-85